Time;durP1;ratioP1;P1;durP2;ratioP2;P2;SDS_P1;SDS_P2;PMS_P1;PMS_P2;Temp;Humidity;BMP_temperature;BMP_pressure;BME280_temperature;BME280_humidity;BME280_pressure;Samples;Min_cycle;Max_cycle;Signal;HPM_P1;HPM_P2
2024/01/26 00:00:57;;;;;;;2.75;1.77;;;18.90;51.90;;;;;;4973791;28;20117;-48
2024/01/26 00:03:22;;;;;;;1.73;1.30;;;18.80;51.90;;;;;;4977468;28;20107;-52
2024/01/26 00:05:48;;;;;;;2.70;1.50;;;18.80;51.90;;;;;;4979149;28;20035;-47
2024/01/26 00:08:15;;;;;;;3.65;1.92;;;18.80;51.90;;;;;;4976068;28;20084;-49
2024/01/26 00:10:40;;;;;;;3.28;1.83;;;18.80;51.90;;;;;;4974995;28;20039;-48
2024/01/26 00:13:06;;;;;;;3.28;1.83;;;18.80;51.90;;;;;;4981925;28;20031;-48
2024/01/26 00:15:31;;;;;;;2.97;1.60;;;18.80;51.90;;;;;;4975693;28;20043;-48
2024/01/26 00:17:57;;;;;;;1.98;1.40;;;18.80;51.90;;;;;;4978176;28;20156;-49
2024/01/26 00:20:22;;;;;;;2.22;1.38;;;18.80;51.90;;;;;;4977352;28;20385;-50
2024/01/26 00:22:48;;;;;;;2.80;1.48;;;18.80;51.90;;;;;;4973846;28;20046;-49
2024/01/26 00:25:14;;;;;;;3.13;1.63;;;18.80;51.90;;;;;;4975802;28;20069;-48
2024/01/26 00:27:39;;;;;;;2.17;1.40;;;18.80;51.90;;;;;;4974893;28;20030;-52
2024/01/26 00:30:06;;;;;;;2.85;1.40;;;18.80;51.90;;;;;;4972968;28;20489;-49
2024/01/26 00:32:32;;;;;;;2.63;1.35;;;18.80;52.00;;;;;;4971976;28;20117;-51
2024/01/26 00:34:57;;;;;;;4.75;1.88;;;18.80;51.90;;;;;;4974051;28;20637;-49
2024/01/26 00:37:23;;;;;;;2.90;1.70;;;18.80;51.90;;;;;;4970792;28;20090;-47
2024/01/26 00:39:48;;;;;;;2.53;1.42;;;18.80;51.90;;;;;;4972735;28;20113;-53
2024/01/26 00:42:13;;;;;;;4.15;1.92;;;18.80;51.90;;;;;;4973404;28;20038;-46
2024/01/26 00:44:39;;;;;;;2.90;1.70;;;18.80;51.90;;;;;;4972948;28;20084;-51
2024/01/26 00:47:05;;;;;;;3.72;1.50;;;18.80;51.90;;;;;;4973377;28;20778;-50
2024/01/26 00:49:30;;;;;;;3.67;1.73;;;18.80;51.90;;;;;;4973354;28;20034;-49
2024/01/26 00:51:56;;;;;;;3.45;1.67;;;18.80;52.00;;;;;;4971035;28;20105;-50
2024/01/26 00:54:21;;;;;;;3.65;1.70;;;18.70;51.90;;;;;;4977896;28;20031;-48
2024/01/26 00:56:47;;;;;;;3.35;1.48;;;18.80;52.00;;;;;;4974108;28;20031;-51
2024/01/26 00:59:12;;;;;;;3.22;1.83;;;18.70;51.90;;;;;;4976656;28;20507;-47
2024/01/26 01:01:38;;;;;;;2.55;1.42;;;18.80;52.00;;;;;;4973526;28;20030;-49
2024/01/26 01:04:04;;;;;;;2.15;1.55;;;18.70;51.90;;;;;;4973206;28;20080;-50
2024/01/26 01:06:30;;;;;;;3.90;1.80;;;18.70;51.90;;;;;;4969836;28;20030;-50
2024/01/26 01:08:56;;;;;;;2.10;1.30;;;18.70;52.00;;;;;;4976502;28;20538;-49
2024/01/26 01:11:21;;;;;;;3.15;1.65;;;18.70;52.00;;;;;;4954789;28;20026;-53
2024/01/26 01:13:47;;;;;;;2.97;1.70;;;18.70;52.10;;;;;;4971221;28;20038;-49
2024/01/26 01:16:12;;;;;;;3.15;1.83;;;18.60;52.10;;;;;;4974764;28;20088;-48
2024/01/26 01:18:38;;;;;;;3.60;1.80;;;18.60;52.20;;;;;;4970941;28;20034;-49
2024/01/26 01:21:04;;;;;;;4.35;2.03;;;18.50;52.20;;;;;;4972493;28;20088;-52
2024/01/26 01:23:30;;;;;;;2.92;1.42;;;18.50;52.30;;;;;;4973106;28;20035;-50
2024/01/26 01:25:56;;;;;;;5.15;2.13;;;18.50;52.30;;;;;;4976286;28;20042;-47
2024/01/26 01:28:21;;;;;;;3.47;1.90;;;18.50;52.30;;;;;;4965314;28;20065;-48
2024/01/26 01:30:47;;;;;;;3.20;1.70;;;18.50;52.40;;;;;;4977517;28;20093;-47
2024/01/26 01:33:12;;;;;;;4.22;1.70;;;18.40;52.40;;;;;;4971147;28;20504;-53
2024/01/26 01:35:38;;;;;;;2.08;1.40;;;18.40;52.40;;;;;;4969879;28;20038;-53
2024/01/26 01:38:03;;;;;;;3.28;1.55;;;18.40;52.40;;;;;;4974985;28;20054;-49
2024/01/26 01:40:29;;;;;;;2.13;1.48;;;18.50;52.50;;;;;;4971342;28;20031;-47
2024/01/26 01:42:54;;;;;;;4.43;2.20;;;18.40;52.40;;;;;;4968453;28;20050;-51
2024/01/26 01:45:21;;;;;;;2.63;1.77;;;18.50;52.40;;;;;;4962771;28;20707;-46
2024/01/26 01:47:46;;;;;;;2.83;1.42;;;18.50;52.30;;;;;;4968593;28;20045;-52
2024/01/26 01:50:12;;;;;;;4.75;2.03;;;18.60;52.20;;;;;;4968500;28;20455;-47
2024/01/26 01:52:41;;;;;;;2.85;1.38;;;18.60;52.00;;;;;;4971778;28;20030;-46
2024/01/26 01:55:11;;;;;;;1.95;1.40;;;18.70;51.90;;;;;;4969499;28;20031;-48
2024/01/26 01:57:41;;;;;;;4.70;1.58;;;18.80;51.80;;;;;;4967230;28;20066;-49
2024/01/26 02:00:15;;;;;;;3.05;1.67;;;18.80;51.60;;;;;;4971298;28;20045;-46
2024/01/26 02:02:43;;;;;;;2.75;1.67;;;18.90;51.50;;;;;;4967516;28;20544;-52
2024/01/26 02:05:08;;;;;;;4.10;1.45;;;19.00;51.30;;;;;;4979795;28;20049;-46
2024/01/26 02:07:34;;;;;;;2.53;1.30;;;19.10;51.10;;;;;;4970340;28;20504;-47
2024/01/26 02:09:59;;;;;;;2.55;1.50;;;19.20;51.00;;;;;;4971470;28;20031;-48
2024/01/26 02:12:25;;;;;;;3.30;1.90;;;19.30;50.90;;;;;;4977950;28;20109;-53
2024/01/26 02:14:51;;;;;;;1.83;1.30;;;19.30;50.70;;;;;;4954397;28;20035;-52
2024/01/26 02:17:17;;;;;;;2.13;1.45;;;19.40;50.60;;;;;;4973178;28;20098;-52
2024/01/26 02:19:42;;;;;;;3.30;1.42;;;19.50;50.40;;;;;;4973472;28;20062;-46
2024/01/26 02:22:08;;;;;;;2.47;1.48;;;19.60;50.40;;;;;;4977494;28;20026;-50
2024/01/26 02:24:33;;;;;;;2.30;1.48;;;19.60;50.30;;;;;;4968419;28;20041;-46
2024/01/26 02:26:59;;;;;;;2.45;1.30;;;19.70;50.20;;;;;;4982208;28;20042;-46
2024/01/26 02:29:24;;;;;;;1.90;1.23;;;19.70;50.10;;;;;;4969634;28;20046;-48
2024/01/26 02:31:50;;;;;;;2.85;1.55;;;19.70;50.00;;;;;;4969794;28;20035;-46
2024/01/26 02:34:16;;;;;;;3.47;1.90;;;19.80;50.10;;;;;;4972422;28;20105;-48
2024/01/26 02:36:41;;;;;;;2.65;1.30;;;19.80;50.00;;;;;;4976070;28;20061;-47
2024/01/26 02:39:07;;;;;;;3.72;1.75;;;19.80;50.00;;;;;;4967604;28;20465;-46
2024/01/26 02:41:34;;;;;;;2.13;1.33;;;19.80;50.00;;;;;;4975429;28;20488;-52
2024/01/26 02:44:01;;;;;;;2.30;1.75;;;19.80;50.00;;;;;;4970158;28;20023;-52
2024/01/26 02:46:27;;;;;;;2.50;2.00;;;19.80;50.10;;;;;;4968585;28;20031;-47
2024/01/26 02:48:52;;;;;;;3.13;1.60;;;19.70;50.10;;;;;;4974575;28;20571;-45
2024/01/26 02:51:18;;;;;;;2.55;1.30;;;19.80;50.10;;;;;;4967993;28;20484;-51
2024/01/26 02:53:43;;;;;;;1.63;1.20;;;19.70;50.10;;;;;;4967341;28;20082;-46
2024/01/26 02:56:09;;;;;;;3.10;1.58;;;19.70;50.20;;;;;;4973854;28;20029;-46
2024/01/26 02:58:36;;;;;;;1.52;1.40;;;19.70;50.30;;;;;;4973448;28;20047;-48
2024/01/26 03:01:02;;;;;;;2.78;1.30;;;19.60;50.40;;;;;;4963852;28;20484;-48
2024/01/26 03:03:30;;;;;;;2.45;1.48;;;19.60;50.50;;;;;;4963421;28;20070;-51
2024/01/26 03:05:56;;;;;;;2.50;1.55;;;19.60;51.20;;;;;;4970256;28;20114;-49
2024/01/26 03:08:21;;;;;;;2.75;1.88;;;19.50;50.60;;;;;;4973140;28;20106;-46
2024/01/26 03:10:47;;;;;;;2.90;1.60;;;19.50;50.70;;;;;;4968717;28;20038;-52
2024/01/26 03:13:12;;;;;;;2.78;1.10;;;19.50;50.70;;;;;;4965148;28;20042;-51
2024/01/26 03:15:38;;;;;;;2.38;1.23;;;19.40;50.80;;;;;;4977859;28;20056;-53
2024/01/26 03:18:03;;;;;;;2.92;1.48;;;19.40;50.90;;;;;;4972853;28;20403;-47
2024/01/26 03:20:30;;;;;;;2.95;1.73;;;19.40;50.90;;;;;;4968917;28;20054;-48
2024/01/26 03:22:56;;;;;;;3.55;1.50;;;19.30;50.90;;;;;;4973714;28;20107;-54
2024/01/26 03:25:21;;;;;;;3.42;1.80;;;19.30;51.00;;;;;;4969042;28;20121;-46
2024/01/26 03:27:47;;;;;;;3.58;1.35;;;19.30;51.10;;;;;;4970202;28;20106;-50
2024/01/26 03:30:13;;;;;;;3.30;1.48;;;19.20;51.10;;;;;;4971202;28;20531;-50
2024/01/26 03:32:38;;;;;;;3.17;1.83;;;19.20;51.20;;;;;;4970217;28;20042;-49
2024/01/26 03:35:05;;;;;;;1.42;1.13;;;19.20;51.30;;;;;;4969291;28;20038;-47
2024/01/26 03:37:30;;;;;;;3.28;1.40;;;19.10;51.30;;;;;;4976636;28;20053;-47
2024/01/26 03:39:56;;;;;;;3.53;1.73;;;19.10;51.40;;;;;;4969746;28;20030;-47
2024/01/26 03:42:21;;;;;;;3.67;1.75;;;19.00;51.40;;;;;;4971811;28;20038;-52
2024/01/26 03:44:47;;;;;;;2.58;1.15;;;19.10;51.50;;;;;;4970471;28;20489;-46
2024/01/26 03:47:12;;;;;;;4.15;1.80;;;19.00;51.50;;;;;;4974423;28;20019;-46
2024/01/26 03:49:44;;;;;;;2.85;1.48;;;19.00;51.50;;;;;;4965418;28;20122;-51
2024/01/26 03:52:10;;;;;;;3.30;1.55;;;19.00;51.60;;;;;;4976745;28;20515;-49
2024/01/26 03:54:35;;;;;;;3.22;1.23;;;19.00;51.60;;;;;;4970210;28;20031;-50
2024/01/26 03:57:01;;;;;;;3.20;1.55;;;18.90;51.70;;;;;;4974302;28;20058;-47
2024/01/26 03:59:26;;;;;;;3.20;1.48;;;18.90;51.70;;;;;;4985450;28;20145;-51
2024/01/26 04:01:52;;;;;;;2.30;1.30;;;18.90;51.70;;;;;;4969911;28;20038;-52
2024/01/26 04:04:17;;;;;;;2.22;1.30;;;18.90;51.80;;;;;;4966879;28;20034;-53
2024/01/26 04:06:43;;;;;;;3.13;1.67;;;18.80;52.40;;;;;;4971562;28;20026;-55
2024/01/26 04:09:09;;;;;;;2.47;1.10;;;18.80;51.80;;;;;;4966610;28;20031;-54
2024/01/26 04:11:35;;;;;;;2.35;1.73;;;18.90;51.80;;;;;;4968904;28;20039;-55
2024/01/26 04:14:00;;;;;;;4.28;2.00;;;18.80;51.80;;;;;;4974834;28;20037;-48
2024/01/26 04:16:26;;;;;;;4.55;1.63;;;18.80;51.80;;;;;;4968351;28;20027;-47
2024/01/26 04:18:51;;;;;;;2.45;1.40;;;18.80;51.80;;;;;;4963309;28;20045;-48
2024/01/26 04:21:17;;;;;;;2.00;1.38;;;18.80;51.80;;;;;;4970338;28;20101;-50
2024/01/26 04:23:42;;;;;;;3.03;1.92;;;18.80;51.90;;;;;;4975441;28;20023;-48
2024/01/26 04:26:08;;;;;;;3.72;1.80;;;18.70;51.80;;;;;;4974122;28;20028;-49
2024/01/26 04:28:33;;;;;;;2.22;1.25;;;18.70;51.80;;;;;;4976406;28;20109;-48
2024/01/26 04:30:59;;;;;;;1.75;0.95;;;18.70;51.80;;;;;;4974613;28;20049;-49
2024/01/26 04:33:25;;;;;;;3.35;1.50;;;18.70;51.80;;;;;;4982277;28;20483;-49
2024/01/26 04:35:50;;;;;;;3.03;1.42;;;18.70;51.80;;;;;;4972383;28;20122;-49
2024/01/26 04:38:16;;;;;;;2.78;1.83;;;18.70;51.90;;;;;;4972434;28;20046;-49
2024/01/26 04:40:41;;;;;;;3.15;1.55;;;18.70;51.90;;;;;;4972753;28;20030;-48
2024/01/26 04:43:08;;;;;;;3.47;1.23;;;18.70;51.90;;;;;;4974219;28;20034;-48
2024/01/26 04:45:33;;;;;;;2.63;1.33;;;18.70;51.90;;;;;;4974257;28;20053;-48
2024/01/26 04:47:59;;;;;;;3.45;1.30;;;18.70;51.90;;;;;;4976511;28;20050;-50
2024/01/26 04:50:24;;;;;;;2.67;1.42;;;18.70;51.90;;;;;;4971372;28;20539;-53
2024/01/26 04:52:52;;;;;;;3.92;1.35;;;18.70;51.90;;;;;;4976891;28;20039;-50
2024/01/26 04:55:19;;;;;;;2.75;1.13;;;18.70;51.80;;;;;;4970605;28;20030;-52
2024/01/26 04:57:44;;;;;;;4.10;1.70;;;18.70;51.90;;;;;;4970219;28;20039;-50
2024/01/26 05:00:10;;;;;;;3.13;1.38;;;18.70;51.90;;;;;;4977564;28;20522;-49
2024/01/26 05:02:36;;;;;;;2.35;1.60;;;18.70;51.90;;;;;;4971873;28;20050;-49
2024/01/26 05:05:01;;;;;;;4.60;1.65;;;18.70;52.00;;;;;;4978808;28;20381;-50
2024/01/26 05:07:27;;;;;;;4.15;1.80;;;18.70;51.90;;;;;;4976037;28;20092;-51
2024/01/26 05:09:52;;;;;;;2.60;1.38;;;18.70;51.90;;;;;;4972382;28;20531;-51
2024/01/26 05:12:18;;;;;;;2.17;1.55;;;18.70;52.00;;;;;;4972740;28;20034;-50
2024/01/26 05:14:44;;;;;;;2.05;1.20;;;18.60;51.80;;;;;;4972308;28;20041;-50
2024/01/26 05:17:09;;;;;;;2.30;1.23;;;18.70;51.90;;;;;;4973436;28;20038;-48
2024/01/26 05:19:35;;;;;;;2.13;1.25;;;18.70;51.80;;;;;;4980220;28;20030;-50
2024/01/26 05:22:01;;;;;;;1.65;1.20;;;18.70;51.80;;;;;;4972806;28;20031;-50
2024/01/26 05:24:26;;;;;;;1.90;1.38;;;18.70;51.80;;;;;;4971939;28;20778;-49
2024/01/26 05:26:53;;;;;;;3.88;1.52;;;18.70;51.80;;;;;;4972752;28;20037;-49
2024/01/26 05:29:19;;;;;;;1.80;1.20;;;18.70;51.70;;;;;;4970420;28;20030;-50
2024/01/26 05:31:44;;;;;;;1.80;1.10;;;18.70;51.70;;;;;;4969471;28;20651;-49
2024/01/26 05:34:10;;;;;;;3.00;1.35;;;18.70;51.70;;;;;;4975483;28;20027;-49
2024/01/26 05:36:42;;;;;;;2.17;1.27;;;18.70;52.30;;;;;;4973135;28;20547;-50
2024/01/26 05:39:09;;;;;;;2.83;1.30;;;18.80;51.60;;;;;;4974218;28;20147;-50
2024/01/26 05:41:34;;;;;;;2.58;1.30;;;18.80;51.60;;;;;;4974443;28;20030;-49
2024/01/26 05:44:00;;;;;;;2.58;1.13;;;18.80;51.60;;;;;;4965517;28;20033;-50
2024/01/26 05:46:26;;;;;;;1.65;1.27;;;18.80;51.50;;;;;;4970372;28;20524;-51
2024/01/26 05:48:51;;;;;;;2.55;1.02;;;18.80;51.60;;;;;;4978379;28;20537;-50
2024/01/26 05:51:17;;;;;;;1.63;1.00;;;18.80;51.50;;;;;;4962709;28;20514;-52
2024/01/26 05:53:42;;;;;;;3.22;1.58;;;18.80;51.40;;;;;;4970702;28;20042;-48
2024/01/26 06:06:15;;;;;;;3.78;1.50;;;18.90;51.30;;;;;;4981100;28;20118;-50
2024/01/26 06:08:41;;;;;;;3.17;1.23;;;18.90;51.30;;;;;;4970964;28;20034;-50
2024/01/26 06:11:07;;;;;;;2.70;1.30;;;18.90;51.30;;;;;;4974829;28;20105;-47
2024/01/26 06:13:33;;;;;;;2.00;1.20;;;19.00;51.30;;;;;;4967130;28;20722;-47
2024/01/26 06:15:58;;;;;;;2.60;1.30;;;19.00;51.30;;;;;;4972700;28;20031;-54
2024/01/26 06:18:24;;;;;;;2.00;1.00;;;19.00;51.30;;;;;;4971568;28;20612;-48
2024/01/26 06:20:49;;;;;;;2.33;1.30;;;19.00;51.30;;;;;;4933846;28;1008307;-53
2024/01/26 06:23:15;;;;;;;2.35;1.20;;;19.00;51.20;;;;;;4971586;28;20341;-47
2024/01/26 06:25:41;;;;;;;2.33;1.40;;;19.00;51.20;;;;;;4973602;28;20038;-49
2024/01/26 06:28:07;;;;;;;1.67;1.20;;;19.00;51.20;;;;;;4971101;28;20042;-47
2024/01/26 06:30:32;;;;;;;3.00;1.05;;;19.00;51.20;;;;;;4977273;28;20081;-51
2024/01/26 06:32:57;;;;;;;1.73;1.13;;;19.00;51.20;;;;;;4970093;28;20042;-50
2024/01/26 06:35:23;;;;;;;2.38;1.45;;;19.00;51.20;;;;;;4979565;28;20121;-50
2024/01/26 06:37:48;;;;;;;2.28;1.25;;;19.00;51.20;;;;;;4975784;28;20038;-49
2024/01/26 06:40:14;;;;;;;2.33;1.20;;;19.00;51.20;;;;;;4975347;28;20050;-50
2024/01/26 06:42:41;;;;;;;2.88;1.20;;;19.00;51.20;;;;;;4967759;28;20031;-52
2024/01/26 06:45:11;;;;;;;1.85;1.05;;;19.00;51.20;;;;;;4980057;28;20164;-49
2024/01/26 06:47:37;;;;;;;3.08;1.30;;;19.00;51.20;;;;;;4969832;28;20031;-50
2024/01/26 06:50:04;;;;;;;1.85;1.08;;;19.00;51.20;;;;;;4976606;28;20038;-50
2024/01/26 06:52:30;;;;;;;1.88;1.50;;;19.00;51.10;;;;;;4974750;28;20049;-50
2024/01/26 06:54:55;;;;;;;2.17;1.40;;;19.00;51.20;;;;;;4970709;28;20034;-50
2024/01/26 06:57:21;;;;;;;1.30;1.08;;;19.00;51.10;;;;;;4976516;28;20439;-48
2024/01/26 06:59:46;;;;;;;4.22;1.40;;;19.00;51.10;;;;;;4972479;28;20031;-50
2024/01/26 07:02:12;;;;;;;1.98;1.25;;;19.00;51.10;;;;;;4972156;28;20026;-49
2024/01/26 07:04:37;;;;;;;3.10;1.33;;;19.00;51.10;;;;;;4975371;28;20092;-51
2024/01/26 07:07:03;;;;;;;2.33;1.60;;;19.00;51.10;;;;;;4970402;28;20045;-49
2024/01/26 07:09:28;;;;;;;2.33;1.42;;;19.00;51.10;;;;;;4970613;28;20026;-52
2024/01/26 07:11:54;;;;;;;2.33;1.33;;;19.00;51.10;;;;;;4976262;28;20031;-49
2024/01/26 07:14:19;;;;;;;1.35;1.23;;;19.10;51.10;;;;;;4970460;28;20023;-48
2024/01/26 07:16:49;;;;;;;2.20;1.40;;;19.00;51.10;;;;;;4968622;28;20039;-49
2024/01/26 07:19:14;;;;;;;3.45;2.25;;;19.10;51.10;;;;;;4971075;28;20121;-49
2024/01/26 07:21:40;;;;;;;3.03;1.60;;;19.10;51.10;;;;;;4973308;28;20109;-52
2024/01/26 07:24:06;;;;;;;3.10;1.80;;;19.10;51.10;;;;;;4964456;28;20046;-51
2024/01/26 07:26:31;;;;;;;2.70;2.00;;;19.10;51.10;;;;;;4975669;28;20528;-49
2024/01/26 07:28:57;;;;;;;4.47;2.63;;;19.10;51.20;;;;;;4969654;28;20492;-50
2024/01/26 07:31:23;;;;;;;5.03;2.80;;;19.10;51.20;;;;;;4970958;28;20026;-49
2024/01/26 07:33:49;;;;;;;4.50;2.53;;;19.10;51.10;;;;;;4974178;28;20031;-51
2024/01/26 07:36:15;;;;;;;5.85;3.05;;;19.10;51.20;;;;;;4969992;28;20030;-48
2024/01/26 07:38:40;;;;;;;4.95;2.95;;;19.10;51.20;;;;;;4968967;28;20039;-49
2024/01/26 07:41:06;;;;;;;5.22;3.10;;;19.00;51.30;;;;;;4965314;28;20043;-49
2024/01/26 07:43:31;;;;;;;16.52;3.97;;;19.00;51.30;;;;;;4970340;28;20030;-49
2024/01/26 07:45:57;;;;;;;6.38;3.60;;;19.00;51.40;;;;;;4972534;28;20447;-51
2024/01/26 07:48:22;;;;;;;8.10;4.13;;;19.00;51.50;;;;;;4969956;28;20121;-51
2024/01/26 07:50:48;;;;;;;5.25;3.10;;;18.90;51.60;;;;;;4975226;28;20038;-50
2024/01/26 07:53:13;;;;;;;5.15;3.30;;;18.90;51.70;;;;;;4963269;28;20448;-49
2024/01/26 07:55:40;;;;;;;6.65;4.25;;;18.80;51.80;;;;;;4971114;28;20440;-49
2024/01/26 07:58:06;;;;;;;8.68;4.45;;;18.80;51.90;;;;;;4967109;28;20051;-49
2024/01/26 08:00:31;;;;;;;6.47;3.40;;;18.80;52.10;;;;;;4967395;28;20038;-49
2024/01/26 08:02:57;;;;;;;6.40;4.15;;;18.70;52.10;;;;;;4968992;28;20110;-49
2024/01/26 08:05:23;;;;;;;8.02;4.20;;;18.70;52.20;;;;;;4963287;28;20034;-49
2024/01/26 08:07:48;;;;;;;9.57;3.78;;;18.70;52.20;;;;;;4967731;28;20050;-49
2024/01/26 08:10:14;;;;;;;7.40;3.88;;;18.70;52.30;;;;;;4970664;28;20039;-49
2024/01/26 08:12:42;;;;;;;6.90;4.07;;;18.70;52.20;;;;;;4971025;28;20122;-51
2024/01/26 08:15:08;;;;;;;9.20;4.53;;;18.70;52.20;;;;;;4969543;28;20045;-51
2024/01/26 08:17:34;;;;;;;9.05;4.03;;;18.70;52.20;;;;;;4970692;28;20042;-50
2024/01/26 08:20:01;;;;;;;6.47;3.58;;;18.70;52.10;;;;;;4966112;28;20042;-49
2024/01/26 08:22:26;;;;;;;8.18;3.25;;;18.70;52.10;;;;;;4972131;28;20079;-50
2024/01/26 08:24:52;;;;;;;6.75;3.63;;;18.70;52.10;;;;;;4971446;28;20042;-49
2024/01/26 08:27:18;;;;;;;5.68;3.22;;;18.70;52.10;;;;;;4960208;28;20042;-50
2024/01/26 08:29:43;;;;;;;8.18;3.67;;;18.70;52.10;;;;;;4973738;28;20038;-48
2024/01/26 08:32:09;;;;;;;5.80;3.40;;;18.70;52.10;;;;;;4969280;28;20037;-49
2024/01/26 08:34:36;;;;;;;7.38;3.55;;;18.70;52.10;;;;;;4964466;28;20030;-48
2024/01/26 08:37:03;;;;;;;7.03;4.15;;;18.70;52.10;;;;;;4967608;28;20042;-49
2024/01/26 08:39:29;;;;;;;5.45;3.42;;;18.70;52.10;;;;;;4970224;28;20027;-48
2024/01/26 08:41:55;;;;;;;8.00;3.45;;;18.70;52.00;;;;;;4967407;28;20039;-50
2024/01/26 08:44:21;;;;;;;5.28;3.38;;;18.70;52.10;;;;;;4966432;28;20045;-49
2024/01/26 08:46:46;;;;;;;6.13;3.70;;;18.70;52.00;;;;;;4965901;28;20033;-49
2024/01/26 08:49:12;;;;;;;6.25;3.38;;;18.70;52.00;;;;;;4966282;28;20031;-49
2024/01/26 08:51:37;;;;;;;6.38;3.50;;;18.70;52.00;;;;;;4971981;28;20409;-48
2024/01/26 08:54:03;;;;;;;5.97;3.45;;;18.70;52.00;;;;;;4967007;28;20037;-49
2024/01/26 08:56:29;;;;;;;7.07;3.47;;;18.70;52.00;;;;;;4965836;28;20761;-48
2024/01/26 08:58:55;;;;;;;5.60;3.45;;;18.70;52.00;;;;;;4969887;28;20879;-51
2024/01/26 09:01:20;;;;;;;9.05;3.63;;;18.80;51.90;;;;;;4974412;28;20114;-48
2024/01/26 09:03:46;;;;;;;4.78;3.25;;;18.80;51.90;;;;;;4968977;28;20041;-58
2024/01/26 09:06:11;;;;;;;4.60;2.60;;;18.80;51.80;;;;;;4973870;28;20042;-48
2024/01/26 09:08:37;;;;;;;4.47;3.00;;;18.90;51.80;;;;;;4972578;28;20046;-48
2024/01/26 09:11:03;;;;;;;5.45;3.30;;;18.80;51.70;;;;;;4973449;28;20082;-51
2024/01/26 09:13:28;;;;;;;6.10;3.17;;;18.80;51.70;;;;;;4970140;28;20042;-47
2024/01/26 09:15:53;;;;;;;4.30;3.15;;;18.90;51.60;;;;;;4966528;28;20114;-53
2024/01/26 09:18:19;;;;;;;5.75;3.42;;;18.90;51.60;;;;;;4974233;28;20661;-50
2024/01/26 09:20:48;;;;;;;6.00;3.05;;;18.90;51.50;;;;;;4973051;28;20130;-47
2024/01/26 09:23:14;;;;;;;3.97;2.70;;;18.90;51.50;;;;;;4968198;28;20035;-46
2024/01/26 09:25:39;;;;;;;6.05;3.17;;;19.00;51.50;;;;;;4970406;28;20373;-50
2024/01/26 09:28:05;;;;;;;4.35;3.28;;;19.00;51.40;;;;;;4969108;28;20038;-49
2024/01/26 09:30:30;;;;;;;3.45;2.53;;;19.00;51.30;;;;;;4967416;28;20031;-52
2024/01/26 09:32:56;;;;;;;11.70;3.05;;;19.10;51.30;;;;;;4970303;28;20042;-51
2024/01/26 09:35:22;;;;;;;3.35;2.50;;;19.10;51.90;;;;;;4974548;28;20046;-48
2024/01/26 09:37:48;;;;;;;4.22;2.75;;;19.10;51.20;;;;;;4969774;28;20050;-52
2024/01/26 09:40:14;;;;;;;5.22;3.22;;;19.10;51.10;;;;;;4973317;28;20404;-49
2024/01/26 09:42:40;;;;;;;5.40;2.78;;;19.20;51.10;;;;;;4971186;28;20046;-49
2024/01/26 09:45:07;;;;;;;3.78;2.80;;;19.20;51.10;;;;;;4968701;28;20034;-48
2024/01/26 09:47:35;;;;;;;3.78;2.80;;;19.20;51.00;;;;;;4971144;28;20218;-48
2024/01/26 09:50:04;;;;;;;4.07;2.53;;;19.20;50.90;;;;;;4972819;28;20034;-51
2024/01/26 09:52:30;;;;;;;4.13;2.92;;;19.30;51.00;;;;;;4974567;28;20057;-47
2024/01/26 09:54:56;;;;;;;3.63;2.55;;;19.30;50.90;;;;;;4968376;28;20043;-48
2024/01/26 09:57:22;;;;;;;3.78;2.50;;;19.30;50.90;;;;;;4967409;28;20073;-50
2024/01/26 09:59:50;;;;;;;4.05;2.40;;;19.30;50.80;;;;;;4971392;28;20455;-47
2024/01/26 10:02:17;;;;;;;3.42;2.38;;;19.30;50.80;;;;;;4971130;28;20058;-47
2024/01/26 10:04:42;;;;;;;3.10;2.10;;;19.40;50.80;;;;;;4972060;28;20034;-49
2024/01/26 10:07:08;;;;;;;3.55;2.33;;;19.30;50.70;;;;;;4967087;28;20093;-48
2024/01/26 10:09:35;;;;;;;3.90;2.38;;;19.40;50.70;;;;;;4965803;28;20031;-46
2024/01/26 10:12:01;;;;;;;2.95;2.13;;;19.40;50.60;;;;;;4967536;28;20554;-48
2024/01/26 10:14:26;;;;;;;2.53;2.00;;;19.40;50.60;;;;;;4967913;28;20047;-50
2024/01/26 10:16:56;;;;;;;2.92;2.10;;;19.40;50.60;;;;;;4972334;28;20031;-48
2024/01/26 10:21:49;;;;;;;3.88;2.88;;;19.40;50.80;;;;;;4981403;23;20084;-53
2024/01/26 10:24:17;;;;;;;4.43;2.60;;;19.30;50.90;;;;;;4975465;28;20517;-55
2024/01/26 10:26:43;;;;;;;3.58;2.30;;;19.30;51.00;;;;;;4987941;28;20069;-56
2024/01/26 10:29:10;;;;;;;4.35;2.05;;;19.20;51.10;;;;;;4994393;28;20046;-56
2024/01/26 10:31:37;;;;;;;2.75;2.03;;;19.20;51.20;;;;;;4992324;28;20038;-56
2024/01/26 10:34:03;;;;;;;3.25;2.28;;;19.10;51.30;;;;;;4992462;28;20038;-55
2024/01/26 10:36:33;;;;;;;2.90;2.05;;;19.00;51.40;;;;;;4990917;28;20034;-54
2024/01/26 10:39:00;;;;;;;3.10;1.67;;;19.00;51.50;;;;;;4992896;28;20052;-56
2024/01/26 10:41:29;;;;;;;3.97;1.70;;;19.00;51.60;;;;;;4989004;28;20563;-56
2024/01/26 10:43:57;;;;;;;2.45;1.88;;;18.90;51.60;;;;;;4993010;28;20038;-55
2024/01/26 10:46:24;;;;;;;5.00;2.75;;;18.90;51.80;;;;;;4996123;28;20035;-54
2024/01/26 10:48:52;;;;;;;2.78;1.90;;;18.80;51.80;;;;;;4988250;28;20570;-52
2024/01/26 10:51:19;;;;;;;3.10;2.17;;;18.80;51.90;;;;;;4992223;28;20041;-55
2024/01/26 10:53:46;;;;;;;2.08;1.60;;;18.80;51.80;;;;;;4990639;28;20096;-54
2024/01/26 10:56:12;;;;;;;2.17;1.73;;;18.80;51.80;;;;;;4995813;28;20060;-54
2024/01/26 10:58:37;;;;;;;2.10;1.75;;;18.80;51.80;;;;;;4993882;28;20125;-54
2024/01/26 11:01:05;;;;;;;2.28;1.77;;;18.80;51.70;;;;;;4991659;28;20034;-52
2024/01/26 11:03:31;;;;;;;4.28;2.05;;;18.90;51.80;;;;;;4992839;28;20036;-54
2024/01/26 11:05:56;;;;;;;2.40;1.73;;;18.90;51.70;;;;;;4997117;28;20121;-53
2024/01/26 11:08:26;;;;;;;2.17;1.70;;;18.90;51.80;;;;;;4995012;28;20122;-52
2024/01/26 11:10:55;;;;;;;3.17;2.00;;;18.90;51.60;;;;;;4996404;28;20496;-52
2024/01/26 11:13:22;;;;;;;2.03;1.80;;;18.90;51.60;;;;;;5000252;28;20031;-56
2024/01/26 11:15:49;;;;;;;2.40;1.75;;;18.90;51.60;;;;;;4995174;28;20044;-56
2024/01/26 11:18:25;;;;;;;2.53;1.75;;;19.00;51.50;;;;;;4996655;28;20120;-52
2024/01/26 11:20:51;;;;;;;2.00;1.80;;;19.00;51.50;;;;;;4986429;28;20030;-54
2024/01/26 11:23:16;;;;;;;2.35;1.65;;;19.00;51.40;;;;;;4995502;28;20366;-54
2024/01/26 11:25:49;;;;;;;2.28;1.42;;;19.00;51.30;;;;;;4999688;28;20030;-54
2024/01/26 11:28:16;;;;;;;1.92;1.45;;;19.00;51.30;;;;;;4996775;28;20033;-55
2024/01/26 11:30:50;;;;;;;3.60;1.55;;;19.10;51.30;;;;;;4999053;28;20027;-56
2024/01/26 11:33:17;;;;;;;2.55;1.70;;;19.10;51.30;;;;;;4967524;28;20026;-56
2024/01/26 11:35:43;;;;;;;2.15;1.80;;;19.10;51.30;;;;;;5001060;28;20031;-56
2024/01/26 11:38:09;;;;;;;2.13;1.63;;;19.10;51.30;;;;;;4995777;28;20455;-55
2024/01/26 11:40:35;;;;;;;1.92;1.50;;;19.10;51.40;;;;;;4999788;28;20022;-55
2024/01/26 11:43:00;;;;;;;2.92;1.65;;;19.00;51.30;;;;;;4994725;28;20026;-55
2024/01/26 11:45:56;;;;;;;1.52;1.42;;;19.00;51.40;;;;;;4997154;28;20113;-53
2024/01/26 11:48:21;;;;;;;1.75;1.33;;;19.00;51.40;;;;;;4992082;28;20041;-53
2024/01/26 11:50:48;;;;;;;2.20;1.73;;;19.00;51.40;;;;;;4995397;28;20034;-52
2024/01/26 11:53:15;;;;;;;3.13;1.42;;;19.00;51.50;;;;;;4988153;28;20330;-52
2024/01/26 11:55:41;;;;;;;1.50;1.30;;;19.00;51.50;;;;;;4996788;28;20489;-52
2024/01/26 11:58:08;;;;;;;2.60;1.48;;;19.00;51.50;;;;;;5005747;23;20134;-53
2024/01/26 12:00:36;;;;;;;1.90;1.50;;;19.00;51.50;;;;;;5004168;28;20489;-55
2024/01/26 12:03:05;;;;;;;1.83;1.42;;;18.90;51.50;;;;;;4997872;28;20030;-55
2024/01/26 12:05:33;;;;;;;2.08;1.38;;;18.90;51.60;;;;;;4996983;28;20106;-52
2024/01/26 12:07:59;;;;;;;1.63;1.20;;;18.90;51.60;;;;;;4998464;28;20034;-55
2024/01/26 12:10:25;;;;;;;2.17;1.40;;;18.80;51.60;;;;;;4992308;28;20034;-54
2024/01/26 12:12:51;;;;;;;2.15;1.77;;;18.90;51.60;;;;;;4994883;28;20035;-52
2024/01/26 12:15:17;;;;;;;1.80;1.42;;;18.80;51.60;;;;;;4997848;28;20026;-51
2024/01/26 12:17:43;;;;;;;1.33;1.23;;;18.80;51.60;;;;;;4993175;28;20039;-51
2024/01/26 12:20:09;;;;;;;1.52;1.40;;;18.90;51.60;;;;;;4992959;28;20405;-54
2024/01/26 12:22:36;;;;;;;1.95;1.38;;;18.80;51.60;;;;;;4992332;28;20030;-55
2024/01/26 12:25:07;;;;;;;1.30;1.00;;;18.80;51.60;;;;;;4996986;28;20025;-54
2024/01/26 12:27:33;;;;;;;2.17;1.30;;;18.90;51.60;;;;;;4993711;28;20117;-52
2024/01/26 12:29:59;;;;;;;2.20;1.30;;;18.90;51.60;;;;;;4995154;28;20521;-53
2024/01/26 12:32:25;;;;;;;2.00;1.50;;;18.90;51.50;;;;;;4993264;28;20106;-53
2024/01/26 12:34:50;;;;;;;3.20;1.50;;;18.90;51.50;;;;;;4993963;28;20031;-55
2024/01/26 12:37:16;;;;;;;2.40;1.40;;;18.90;51.50;;;;;;4997071;28;20536;-52
2024/01/26 12:39:41;;;;;;;1.48;1.20;;;18.90;51.50;;;;;;4994060;28;20255;-55
2024/01/26 12:42:07;;;;;;;1.15;0.98;;;18.90;51.40;;;;;;4999065;28;20030;-53
2024/01/26 12:44:33;;;;;;;2.50;1.17;;;18.90;51.40;;;;;;4993523;28;20038;-54
2024/01/26 12:47:00;;;;;;;2.72;1.20;;;19.00;51.40;;;;;;4993886;28;20111;-55
2024/01/26 12:49:26;;;;;;;1.50;1.30;;;19.00;51.40;;;;;;4990660;28;20091;-52
2024/01/26 12:51:53;;;;;;;1.70;1.50;;;19.00;51.30;;;;;;4993913;28;20034;-52